DW4207 Weather Reports


Display with metric or nautical units.
time (UTC)temp
F
wind
direction
speed
MPH
gust
MPH
rain 1hr
in
rain 24hr
in
rain mn
in
humidity
%
barometer
mb
20210923170833 90 40 0.0 0.0 0.00 0.00 0.00 34 1013.4
20210923162833 88 322 0.0 0.0 0.00 0.00 0.00 37 1013.5
20210923161833 87 321 0.0 0.0 0.00 0.00 0.00 38 1013.4
20210923160832 87 320 0.0 0.0 0.00 0.00 0.00 39 1013.4
20210923153832 86 320 0.0 0.0 0.00 0.00 0.00 42 1013.3
20210923152832 84 320 0.0 0.0 0.00 0.00 0.00 45 1013.1
20210923151832 83 320 0.0 0.0 0.00 0.00 0.00 45 1013.2
20210923150832 82 320 0.0 0.0 0.00 0.00 0.00 46 1013.2
20210923145832 81 309 0.0 0.0 0.00 0.00 0.00 48 1013.1
20210923144833 79 309 0.0 0.0 0.00 0.00 0.00 49 1013.0
20210923141832 73 308 0.0 0.0 0.00 0.00 0.00 57 1012.9
20210923134831 72 308 0.0 0.0 0.00 0.00 0.00 55 1012.5
20210923133831 72 308 0.0 0.0 0.00 0.00 0.00 53 1012.3
20210923131831 72 308 0.0 0.0 0.00 0.00 0.00 51 1012.2
20210923125831 72 308 0.0 0.0 0.00 0.00 0.00 51 1012.1
20210923121830 74 308 0.0 0.0 0.00 0.00 0.00 47 1011.7
20210923115830 74 308 0.0 0.0 0.00 0.00 0.00 46 1011.5
20210923114830 75 308 0.0 0.0 0.00 0.00 0.00 45 1011.5
20210923112830 76 308 0.0 0.0 0.00 0.00 0.00 43 1011.6
20210923111830 76 308 0.0 0.0 0.00 0.00 0.00 42 1011.6
20210923105830 77 308 0.0 0.0 0.00 0.00 0.00 40 1011.5
20210923102830 77 308 0.0 0.0 0.00 0.00 0.00 38 1011.7
20210923101830 77 308 0.0 0.0 0.00 0.00 0.00 38 1011.7
20210923100830 77 308 0.0 0.0 0.00 0.00 0.00 38 1011.7
20210923094829 77 308 0.0 0.0 0.00 0.00 0.00 38 1011.6
20210923092829 77 308 0.0 0.0 0.00 0.00 0.00 41 1011.7
20210923091829 77 308 0.0 0.0 0.00 0.00 0.00 40 1011.8
20210923090829 78 308 0.0 0.0 0.00 0.00 0.00 39 1011.8
20210923085829 78 308 0.0 0.0 0.00 0.00 0.00 39 1012.2
20210923084829 78 308 0.0 0.0 0.00 0.00 0.00 39 1012.1
20210923083829 78 308 0.0 0.0 0.00 0.00 0.00 39 1012.1
20210923081829 79 308 0.0 0.0 0.00 0.00 0.00 38 1012.2
20210923080829 79 308 0.0 0.0 0.00 0.00 0.00 37 1012.1
20210923075829 79 308 0.0 0.0 0.00 0.00 0.00 37 1012.1
20210923073829 80 308 0.0 0.0 0.00 0.00 0.00 37 1012.0
20210923072829 80 308 0.0 0.0 0.00 0.00 0.00 37 1012.1
20210923070828 81 308 0.0 0.0 0.00 0.00 0.00 35 1012.0
20210923065829 81 308 0.0 0.0 0.00 0.00 0.00 35 1012.2
20210923063828 81 308 0.0 0.0 0.00 0.00 0.00 35 1012.2
20210923055828 83 308 0.0 0.0 0.00 0.00 0.00 30 1012.3
20210923054828 84 308 0.0 0.0 0.00 0.00 0.00 29 1012.3
20210923053828 83 308 0.0 0.0 0.00 0.00 0.00 28 1012.4
20210923052828 83 308 0.0 0.0 0.00 0.00 0.00 28 1012.4
20210923045828 85 308 0.0 0.0 0.00 0.00 0.00 28 1012.3
20210923041827 84 308 0.0 0.0 0.00 0.00 0.00 29 1012.1
20210923040827 84 308 0.0 0.0 0.00 0.00 0.00 28 1012.2
20210923035827 84 308 0.0 0.0 0.00 0.00 0.00 27 1012.1
20210923032827 86 308 0.0 0.0 0.00 0.00 0.00 28 1012.0
20210923025827 87 308 0.0 0.0 0.00 0.00 0.00 25 1011.8
20210923024826 88 308 0.0 0.0 0.00 0.00 0.00 25 1011.7
20210923023826 89 308 0.0 0.0 0.00 0.00 0.00 24 1011.7
20210923021826 91 308 0.0 0.0 0.00 0.00 0.00 21 1011.5
20210923013826 95 308 0.0 0.0 0.00 0.00 0.00 17 1011.5
20210923011826 98 308 0.0 0.0 0.00 0.00 0.00 15 1011.5
20210923005826 102 308 0.0 0.0 0.00 0.00 0.00 14 1011.7
20210923004826 102 308 0.0 0.0 0.00 0.00 0.00 14 1011.7
20210923002825 102 308 0.0 0.0 0.00 0.00 0.00 12 1011.9
20210923001825 102 308 0.0 0.0 0.00 0.00 0.00 12 1011.9
20210923000825 102 308 0.0 0.0 0.00 0.00 0.00 11 1012.1
20210922235825 102 308 0.0 0.0 0.00 0.00 0.00 12 1012.1
20210922234825 102 308 0.0 2.0 0.00 0.00 0.00 12 1012.2
20210922233825 102 308 0.0 0.0 0.00 0.00 0.00 12 1012.3
20210922232825 102 308 0.0 3.0 0.00 0.00 0.00 12 1012.5
20210922222825 103 4 0.0 0.0 0.00 0.00 0.00 13 1013.5
20210922221825 102 4 0.0 1.0 0.00 0.00 0.00 11 1013.6
20210922220825 102 1 0.0 1.0 0.00 0.00 0.00 11 1013.8
20210922215824 102 2 0.0 0.0 0.00 0.00 0.00 12 1013.9
20210922214825 103 6 0.0 2.0 0.00 0.00 0.00 13 1014.0
20210922213825 102 356 0.0 1.0 0.00 0.00 0.00 11 1014.2
20210922212824 102 3 0.0 0.0 0.00 0.00 0.00 12 1014.4
20210922210824 102 10 0.0 0.0 0.00 0.00 0.00 12 1014.7
20210922204824 101 73 1.0 2.0 0.00 0.00 0.00 13 1015.2
20210922203824 101 71 3.0 3.0 0.00 0.00 0.00 14 1015.4
20210922202824 100 95 0.0 1.0 0.00 0.00 0.00 14 1015.6
20210922193824 99 144 3.0 3.0 0.00 0.00 0.00 16 1016.7
20210922185823 98 75 1.0 2.0 0.00 0.00 0.00 17 1017.3
20210922184823 98 135 3.0 8.0 0.00 0.00 0.00 17 1017.4
20210922183823 98 121 1.0 3.0 0.00 0.00 0.00 17 1017.6
20210922182823 97 74 4.0 5.0 0.00 0.00 0.00 17 1017.8
20210922175823 96 62 2.0 6.0 0.00 0.00 0.00 18 1018.3
20210922173823 94 85 0.0 3.0 0.00 0.00 0.00 18 1018.6
20210922172823 94 71 1.0 9.0 0.00 0.00 0.00 19 1018.8